Time;durP1;ratioP1;P1;durP2;ratioP2;P2;SDS_P1;SDS_P2;PMS_P1;PMS_P2;Temp;Humidity;BMP_temperature;BMP_pressure;BME280_temperature;BME280_humidity;BME280_pressure;Samples;Min_cycle;Max_cycle;Signal;HPM_P1;HPM_P2
2023/12/01 00:00:28;;;;;;;30.48;21.63;;;1.70;99.90;;;;;;5080579;28;20247;-77
2023/12/01 00:03:13;;;;;;;27.17;20.50;;;1.70;99.90;;;;;;5077995;28;20226;-77
2023/12/01 00:05:59;;;;;;;29.70;21.95;;;1.70;99.90;;;;;;5082756;28;20207;-76
2023/12/01 00:08:45;;;;;;;27.20;19.35;;;1.60;99.90;;;;;;5073589;28;20734;-77
2023/12/01 00:11:30;;;;;;;27.23;21.02;;;1.70;99.90;;;;;;5074674;28;20196;-77
2023/12/01 00:14:16;;;;;;;27.38;21.02;;;1.80;99.90;;;;;;5069518;28;20232;-77
2023/12/01 00:17:03;;;;;;;24.05;18.60;;;1.90;99.90;;;;;;5078020;28;20341;-76
2023/12/01 00:19:48;;;;;;;23.42;18.58;;;1.80;99.90;;;;;;5074820;28;20196;-77
2023/12/01 00:22:34;;;;;;;26.45;19.95;;;1.90;99.90;;;;;;5070913;28;20201;-76
2023/12/01 00:25:20;;;;;;;28.65;20.50;;;1.90;99.90;;;;;;5073280;28;20203;-77
2023/12/01 00:28:06;;;;;;;28.40;20.80;;;1.80;99.90;;;;;;5067262;28;20687;-76
2023/12/01 00:30:51;;;;;;;26.50;21.05;;;1.80;99.90;;;;;;5082949;28;20200;-76
2023/12/01 00:33:39;;;;;;;29.80;22.25;;;1.80;99.90;;;;;;5078591;28;20341;-76
2023/12/01 00:36:24;;;;;;;32.47;20.63;;;1.80;99.90;;;;;;5074140;28;20214;-77
2023/12/01 00:39:10;;;;;;;27.08;22.90;;;1.70;99.90;;;;;;5084093;28;20253;-76
2023/12/01 00:41:56;;;;;;;38.85;23.85;;;1.70;99.90;;;;;;5081990;28;20213;-77
2023/12/01 00:44:42;;;;;;;31.05;23.58;;;1.80;99.90;;;;;;5073597;28;20244;-77
2023/12/01 00:47:27;;;;;;;31.73;22.52;;;1.80;99.90;;;;;;5080655;28;20242;-76
2023/12/01 00:50:15;;;;;;;28.05;23.63;;;1.90;99.90;;;;;;5074598;28;20658;-77
2023/12/01 00:53:01;;;;;;;33.28;22.27;;;1.90;99.90;;;;;;5077947;28;20212;-77
2023/12/01 00:55:46;;;;;;;28.23;21.85;;;1.90;99.90;;;;;;5076672;28;20246;-77
2023/12/01 00:58:31;;;;;;;30.90;24.38;;;1.90;99.90;;;;;;5077855;28;20245;-77
2023/12/01 01:01:17;;;;;;;30.20;22.73;;;2.00;99.90;;;;;;5069335;28;20828;-77
2023/12/01 01:04:03;;;;;;;33.17;22.95;;;2.00;99.90;;;;;;5078568;28;20276;-77
2023/12/01 01:06:50;;;;;;;28.38;21.20;;;2.10;99.90;;;;;;5069978;28;20824;-77
2023/12/01 01:09:36;;;;;;;28.48;21.35;;;2.10;99.90;;;;;;5076730;28;20223;-77
2023/12/01 01:12:22;;;;;;;29.33;21.60;;;2.00;99.90;;;;;;5078222;28;20300;-77
2023/12/01 01:15:08;;;;;;;27.05;21.00;;;2.00;99.90;;;;;;5085853;28;20227;-77
2023/12/01 01:17:54;;;;;;;26.63;21.23;;;2.00;99.90;;;;;;5076875;28;20228;-77
2023/12/01 01:20:40;;;;;;;26.90;20.27;;;2.00;99.90;;;;;;5072569;28;20209;-77
2023/12/01 01:23:27;;;;;;;27.70;21.05;;;2.00;99.90;;;;;;5081398;28;20231;-76
2023/12/01 01:26:14;;;;;;;27.23;20.67;;;2.00;99.90;;;;;;5076698;28;20207;-75
2023/12/01 01:29:00;;;;;;;25.10;19.60;;;1.90;99.90;;;;;;5078891;28;20273;-75
2023/12/01 01:31:46;;;;;;;28.75;20.42;;;1.80;99.90;;;;;;5082602;28;20207;-75
2023/12/01 01:34:31;;;;;;;27.75;20.67;;;1.80;99.90;;;;;;5082145;28;20290;-75
2023/12/01 01:37:17;;;;;;;27.52;20.58;;;1.80;99.90;;;;;;5085660;28;20686;-75
2023/12/01 01:40:05;;;;;;;29.08;21.23;;;1.80;99.90;;;;;;5078988;28;20219;-75
2023/12/01 01:42:51;;;;;;;27.88;21.40;;;1.80;99.90;;;;;;5083736;28;20702;-75
2023/12/01 01:45:36;;;;;;;32.13;21.10;;;1.90;99.90;;;;;;5081565;28;20196;-75
2023/12/01 01:48:22;;;;;;;27.77;20.73;;;2.00;99.90;;;;;;5080326;28;20715;-75
2023/12/01 01:51:09;;;;;;;29.05;20.73;;;2.00;99.90;;;;;;5079045;28;20200;-75
2023/12/01 01:53:55;;;;;;;26.60;20.23;;;2.00;99.90;;;;;;5077928;28;20232;-76
2023/12/01 01:56:42;;;;;;;32.17;22.02;;;2.00;99.90;;;;;;5076956;28;20204;-76
2023/12/01 01:59:28;;;;;;;29.33;23.05;;;1.90;99.90;;;;;;5080013;28;20203;-75
2023/12/01 02:02:14;;;;;;;27.00;20.08;;;1.80;99.90;;;;;;5080199;28;20219;-76
2023/12/01 02:05:00;;;;;;;30.08;21.33;;;1.80;99.90;;;;;;5087880;28;20297;-76
2023/12/01 02:07:45;;;;;;;29.67;19.92;;;1.90;99.90;;;;;;5077114;28;20664;-75
2023/12/01 02:10:34;;;;;;;31.42;23.02;;;1.90;99.90;;;;;;5077165;28;20200;-76
2023/12/01 02:13:22;;;;;;;30.02;21.25;;;1.90;99.90;;;;;;5085448;28;20721;-75
2023/12/01 02:16:09;;;;;;;26.48;21.17;;;1.90;99.90;;;;;;5077342;28;20263;-76
2023/12/01 02:18:55;;;;;;;29.05;22.13;;;1.90;99.90;;;;;;5082121;28;20267;-76
2023/12/01 02:21:45;;;;;;;29.67;21.58;;;2.00;99.90;;;;;;5081836;28;20276;-76
2023/12/01 02:24:31;;;;;;;30.90;21.40;;;2.00;99.90;;;;;;5076510;28;20226;-75
2023/12/01 02:27:16;;;;;;;29.13;21.40;;;2.10;99.90;;;;;;5087526;28;20254;-75
2023/12/01 02:30:02;;;;;;;33.33;24.88;;;2.00;99.90;;;;;;5087275;28;20301;-75
2023/12/01 02:32:48;;;;;;;32.40;23.48;;;2.10;99.90;;;;;;5083920;28;20216;-75
2023/12/01 02:35:33;;;;;;;39.22;26.48;;;2.10;99.90;;;;;;5071388;28;20208;-75
2023/12/01 02:38:21;;;;;;;33.08;24.90;;;2.20;99.90;;;;;;5085774;28;20331;-76
2023/12/01 02:41:07;;;;;;;41.13;25.73;;;2.30;99.90;;;;;;5083910;28;20215;-76
2023/12/01 02:43:53;;;;;;;38.53;26.00;;;2.30;99.90;;;;;;5086770;28;20350;-75
2023/12/01 02:46:39;;;;;;;41.63;25.23;;;2.50;99.90;;;;;;5076566;28;20570;-75
2023/12/01 02:49:25;;;;;;;39.85;27.25;;;2.40;99.90;;;;;;5087732;28;20575;-75
2023/12/01 02:52:10;;;;;;;38.42;25.42;;;2.50;99.90;;;;;;5082171;28;20322;-75
2023/12/01 02:54:57;;;;;;;43.78;28.02;;;2.50;99.90;;;;;;5078902;28;20231;-76
2023/12/01 02:57:43;;;;;;;38.13;25.88;;;2.50;99.90;;;;;;5080906;28;20683;-76
2023/12/01 03:00:29;;;;;;;39.15;25.55;;;2.50;99.90;;;;;;5087531;28;20269;-75
2023/12/01 03:03:15;;;;;;;38.13;26.55;;;2.60;99.90;;;;;;5082178;28;20238;-76
2023/12/01 03:06:00;;;;;;;45.55;26.58;;;2.60;99.90;;;;;;5079020;28;20200;-75
2023/12/01 03:08:46;;;;;;;42.22;26.55;;;2.60;99.90;;;;;;5084886;28;20532;-75
2023/12/01 03:11:34;;;;;;;45.35;27.40;;;2.70;99.90;;;;;;5077970;28;20575;-75
2023/12/01 03:14:19;;;;;;;43.40;26.98;;;2.70;99.90;;;;;;5076816;28;20224;-75
2023/12/01 03:17:06;;;;;;;46.85;28.60;;;2.70;99.90;;;;;;5071613;28;20207;-76
2023/12/01 03:19:52;;;;;;;42.58;27.00;;;2.70;99.90;;;;;;5084293;28;20565;-76
2023/12/01 03:22:38;;;;;;;44.15;26.45;;;2.70;99.90;;;;;;5079393;28;20205;-75
2023/12/01 03:25:24;;;;;;;48.70;25.55;;;2.80;99.90;;;;;;5083006;28;20342;-75
2023/12/01 03:28:11;;;;;;;44.17;27.23;;;2.80;99.90;;;;;;5084096;28;20254;-75
2023/12/01 03:30:56;;;;;;;46.95;26.35;;;2.80;99.90;;;;;;5078075;28;20204;-76
2023/12/01 03:33:42;;;;;;;53.45;29.15;;;2.80;99.90;;;;;;5087593;28;20599;-75
2023/12/01 03:36:28;;;;;;;55.58;29.20;;;2.80;99.90;;;;;;5081116;28;20212;-76
2023/12/01 03:39:13;;;;;;;57.10;29.85;;;2.80;99.90;;;;;;5075416;28;20204;-75
2023/12/01 03:41:59;;;;;;;63.30;30.38;;;2.90;99.90;;;;;;5082143;28;20293;-76
2023/12/01 03:44:46;;;;;;;50.72;28.65;;;2.80;99.90;;;;;;5077778;28;20246;-76
2023/12/01 03:47:31;;;;;;;59.33;29.13;;;2.80;99.90;;;;;;5079393;28;20277;-75
2023/12/01 03:50:18;;;;;;;52.45;27.35;;;2.80;99.90;;;;;;5071313;28;20227;-76
2023/12/01 03:53:04;;;;;;;70.57;30.23;;;2.80;99.90;;;;;;5082840;28;20211;-75
2023/12/01 03:55:50;;;;;;;57.75;28.90;;;2.80;99.90;;;;;;5081336;28;20215;-75
2023/12/01 03:58:35;;;;;;;59.47;29.25;;;2.80;99.90;;;;;;5082730;28;20569;-75
2023/12/01 04:01:23;;;;;;;58.92;28.73;;;2.80;99.90;;;;;;5082820;28;20585;-76
2023/12/01 04:04:10;;;;;;;54.75;27.83;;;2.80;99.90;;;;;;5082269;28;20227;-75
2023/12/01 04:06:55;;;;;;;62.55;28.08;;;2.80;99.90;;;;;;5075499;28;20208;-76
2023/12/01 04:09:41;;;;;;;63.25;30.08;;;2.80;99.90;;;;;;5071175;28;20244;-75
2023/12/01 04:12:30;;;;;;;53.92;26.65;;;2.80;99.90;;;;;;5082446;28;20286;-75
2023/12/01 04:15:17;;;;;;;48.53;26.55;;;2.80;99.90;;;;;;5079327;28;20199;-76
2023/12/01 04:18:07;;;;;;;54.78;28.05;;;2.80;99.90;;;;;;5083036;28;20207;-75
2023/12/01 04:20:52;;;;;;;53.97;27.05;;;2.80;99.90;;;;;;5079893;28;20279;-75
2023/12/01 04:23:38;;;;;;;60.60;26.60;;;2.80;99.90;;;;;;5080508;28;20687;-75
2023/12/01 04:26:24;;;;;;;48.80;26.48;;;2.80;99.90;;;;;;5077465;28;20253;-75
2023/12/01 04:29:09;;;;;;;47.80;26.85;;;2.80;99.90;;;;;;5076082;28;20697;-75
2023/12/01 04:31:55;;;;;;;57.65;27.02;;;2.80;99.90;;;;;;5082024;28;20573;-76
2023/12/01 04:34:43;;;;;;;49.97;26.08;;;2.90;99.90;;;;;;5074772;28;20582;-75
2023/12/01 04:37:31;;;;;;;48.90;27.30;;;2.80;99.90;;;;;;5084362;28;20330;-76
2023/12/01 04:40:17;;;;;;;44.38;24.40;;;2.80;99.90;;;;;;5073662;28;20195;-76
2023/12/01 04:43:03;;;;;;;52.13;26.50;;;2.70;99.90;;;;;;5086566;28;20204;-75
2023/12/01 04:45:48;;;;;;;51.85;26.00;;;2.80;99.90;;;;;;5074540;28;20208;-76
2023/12/01 04:48:34;;;;;;;55.65;25.48;;;2.80;99.90;;;;;;5079797;28;20307;-75
2023/12/01 04:51:21;;;;;;;57.00;27.13;;;2.80;99.90;;;;;;5077257;28;20207;-75
2023/12/01 04:54:07;;;;;;;49.63;25.75;;;2.70;99.90;;;;;;5075400;28;20248;-75
2023/12/01 04:56:52;;;;;;;55.08;25.38;;;2.70;99.90;;;;;;5081946;28;20208;-76
2023/12/01 04:59:38;;;;;;;47.42;25.20;;;2.70;99.90;;;;;;5083488;28;20339;-75
2023/12/01 05:02:24;;;;;;;59.33;27.77;;;2.70;99.90;;;;;;5087092;28;20226;-75
2023/12/01 05:05:11;;;;;;;50.83;27.30;;;2.70;99.90;;;;;;5079892;28;20223;-75
2023/12/01 05:07:59;;;;;;;55.90;25.23;;;2.70;99.90;;;;;;5073961;28;20205;-75
2023/12/01 05:10:46;;;;;;;67.22;27.05;;;2.70;99.90;;;;;;5078044;28;20231;-75
2023/12/01 05:13:31;;;;;;;61.85;28.42;;;2.70;99.90;;;;;;5073783;28;20227;-76
2023/12/01 05:16:17;;;;;;;65.90;30.02;;;2.60;99.90;;;;;;5080592;28;20591;-75
2023/12/01 05:19:03;;;;;;;56.40;28.65;;;2.60;99.90;;;;;;5090611;28;20308;-75
2023/12/01 05:21:48;;;;;;;62.97;28.35;;;2.60;99.90;;;;;;5082816;28;20244;-76
2023/12/01 05:24:35;;;;;;;62.58;27.70;;;2.60;99.90;;;;;;5090897;28;21662;-75
2023/12/01 05:27:21;;;;;;;64.20;29.15;;;2.60;99.90;;;;;;5090443;28;20203;-75
2023/12/01 05:30:08;;;;;;;54.17;26.45;;;2.70;99.90;;;;;;5082934;28;20215;-76
2023/12/01 05:32:55;;;;;;;56.78;27.35;;;2.70;99.90;;;;;;5087774;28;20206;-75
2023/12/01 05:35:42;;;;;;;57.25;27.67;;;2.70;99.90;;;;;;5084390;28;20347;-75
2023/12/01 05:38:28;;;;;;;68.43;28.40;;;2.70;99.90;;;;;;5085157;28;20308;-75
2023/12/01 05:41:16;;;;;;;68.32;28.02;;;2.70;99.90;;;;;;5084052;28;20208;-75
2023/12/01 05:44:02;;;;;;;62.50;28.65;;;2.70;99.90;;;;;;5093492;28;20354;-76
2023/12/01 05:46:48;;;;;;;66.95;29.10;;;2.70;99.90;;;;;;5079711;28;20204;-75
2023/12/01 05:49:33;;;;;;;56.35;28.90;;;2.70;99.90;;;;;;5084031;28;20227;-75
2023/12/01 05:52:19;;;;;;;61.03;29.00;;;2.80;99.90;;;;;;5084005;28;20196;-76
2023/12/01 05:55:10;;;;;;;55.72;27.83;;;2.70;99.90;;;;;;5085120;28;20290;-76
2023/12/01 05:57:58;;;;;;;51.78;26.25;;;2.80;99.90;;;;;;5085057;28;20215;-75
2023/12/01 06:00:44;;;;;;;61.45;30.88;;;2.70;99.90;;;;;;5084908;28;20331;-75
2023/12/01 06:03:29;;;;;;;72.38;29.30;;;2.80;99.90;;;;;;5077428;28;20780;-75
2023/12/01 06:06:15;;;;;;;60.65;26.92;;;2.80;99.90;;;;;;5076252;28;20254;-75
2023/12/01 06:09:01;;;;;;;59.42;27.83;;;2.70;99.90;;;;;;5089273;28;20717;-76
2023/12/01 06:11:46;;;;;;;60.47;26.58;;;2.70;99.90;;;;;;5083820;28;20275;-75
2023/12/01 06:14:33;;;;;;;56.45;28.15;;;2.70;99.90;;;;;;5085458;28;20226;-76
2023/12/01 06:17:19;;;;;;;57.80;26.70;;;2.70;99.90;;;;;;5083306;28;20261;-75
2023/12/01 06:20:16;;;;;;;64.22;29.38;;;2.80;99.90;;;;;;5079819;28;20254;-76
2023/12/01 06:23:06;;;;;;;63.45;29.23;;;2.70;99.90;;;;;;5087974;28;20281;-75
2023/12/01 06:25:51;;;;;;;66.57;30.00;;;2.70;99.90;;;;;;5090966;28;20203;-75
2023/12/01 06:28:37;;;;;;;69.53;30.02;;;2.70;99.90;;;;;;5085200;28;20210;-76
2023/12/01 06:31:24;;;;;;;64.32;30.20;;;2.70;99.90;;;;;;5083593;28;20266;-76
2023/12/01 06:34:09;;;;;;;57.00;27.83;;;2.70;99.90;;;;;;5081063;28;20239;-75
2023/12/01 06:36:59;;;;;;;62.72;29.35;;;2.70;99.90;;;;;;5080197;28;20702;-75
2023/12/01 06:39:44;;;;;;;62.38;29.20;;;2.70;99.90;;;;;;5079193;28;20200;-75
2023/12/01 06:42:30;;;;;;;57.63;28.48;;;2.80;99.90;;;;;;5087497;28;20208;-76
2023/12/01 06:45:16;;;;;;;57.78;28.00;;;2.80;99.90;;;;;;5087545;28;20199;-75
2023/12/01 06:48:04;;;;;;;57.92;28.38;;;2.90;99.90;;;;;;5087417;28;20207;-76
2023/12/01 06:50:49;;;;;;;57.58;27.58;;;2.90;99.90;;;;;;5087081;28;20637;-76
2023/12/01 06:53:35;;;;;;;49.58;25.55;;;2.90;99.90;;;;;;5087872;28;20223;-75
2023/12/01 06:56:21;;;;;;;50.10;25.25;;;2.90;99.90;;;;;;5083043;28;20207;-77
2023/12/01 06:59:06;;;;;;;48.65;24.52;;;2.90;99.90;;;;;;5087163;28;20744;-75
2023/12/01 07:01:52;;;;;;;53.88;27.45;;;2.90;99.90;;;;;;5082344;28;20216;-76
2023/12/01 07:04:40;;;;;;;53.25;27.05;;;2.90;99.90;;;;;;5085682;28;20273;-76
2023/12/01 07:07:30;;;;;;;50.47;26.08;;;2.90;99.90;;;;;;5073541;28;20697;-76
2023/12/01 07:10:16;;;;;;;43.67;25.50;;;2.90;99.90;;;;;;5079699;28;20219;-75
2023/12/01 07:13:03;;;;;;;50.67;26.35;;;3.00;99.90;;;;;;5075841;28;20206;-76
2023/12/01 07:15:49;;;;;;;51.28;26.10;;;3.00;99.90;;;;;;5071676;28;20208;-75
2023/12/01 07:18:35;;;;;;;53.53;28.10;;;3.00;99.90;;;;;;5083870;28;20262;-75
2023/12/01 07:21:22;;;;;;;45.28;23.48;;;3.00;99.90;;;;;;5084069;28;20196;-74
2023/12/01 07:24:08;;;;;;;49.53;26.50;;;3.00;99.90;;;;;;5096405;22;20597;-73
2023/12/01 07:26:53;;;;;;;47.30;26.35;;;3.00;99.90;;;;;;5073862;28;20200;-73
2023/12/01 07:29:40;;;;;;;46.17;25.80;;;3.00;99.90;;;;;;5071602;28;20266;-72
2023/12/01 07:32:25;;;;;;;53.28;26.88;;;2.90;99.90;;;;;;5082941;28;20219;-73
2023/12/01 07:35:12;;;;;;;46.40;26.25;;;3.00;99.90;;;;;;5068358;28;20338;-73
2023/12/01 07:37:59;;;;;;;49.30;26.30;;;2.90;99.90;;;;;;5072667;28;20217;-73
2023/12/01 07:40:46;;;;;;;46.88;25.10;;;3.00;99.90;;;;;;5076735;28;20197;-73
2023/12/01 07:43:31;;;;;;;47.25;27.80;;;3.00;99.90;;;;;;5069100;28;20246;-72
2023/12/01 07:46:17;;;;;;;48.40;27.20;;;3.00;99.90;;;;;;5080773;28;20242;-73
2023/12/01 07:49:02;;;;;;;43.22;24.25;;;3.00;99.90;;;;;;5066185;28;20203;-73
2023/12/01 07:51:48;;;;;;;52.47;25.70;;;3.00;99.90;;;;;;5075170;28;20302;-73
2023/12/01 07:54:35;;;;;;;50.05;24.98;;;3.00;99.90;;;;;;5076651;28;20219;-72
2023/12/01 07:57:21;;;;;;;46.80;25.20;;;3.00;99.90;;;;;;5082727;28;20207;-72
2023/12/01 08:00:14;;;;;;;50.35;26.80;;;2.90;99.90;;;;;;5075363;28;20282;-72
2023/12/01 08:02:59;;;;;;;48.17;26.48;;;2.90;99.90;;;;;;5073692;28;20218;-72
2023/12/01 08:05:45;;;;;;;47.55;26.30;;;2.90;99.90;;;;;;5072182;28;20216;-72
2023/12/01 08:08:31;;;;;;;55.78;28.55;;;2.90;99.90;;;;;;5071425;28;20204;-71
2023/12/01 08:11:19;;;;;;;50.58;27.77;;;3.00;99.90;;;;;;5062329;28;20229;-72
2023/12/01 08:14:04;;;;;;;54.92;30.25;;;3.00;99.90;;;;;;5067242;28;20692;-72
2023/12/01 08:16:50;;;;;;;50.75;27.38;;;3.00;99.90;;;;;;5073759;28;20216;-74
2023/12/01 08:19:35;;;;;;;55.58;28.52;;;3.00;99.90;;;;;;5063807;28;20626;-74
2023/12/01 08:22:21;;;;;;;55.13;32.53;;;3.00;99.90;;;;;;5075406;28;20662;-73
2023/12/01 08:25:09;;;;;;;44.80;27.17;;;3.00;99.90;;;;;;5088961;28;20506;-73
2023/12/01 08:27:56;;;;;;;49.38;28.25;;;3.10;99.90;;;;;;5080256;28;20582;-73
2023/12/01 08:30:41;;;;;;;51.45;31.08;;;3.10;99.90;;;;;;5082855;28;20219;-72
2023/12/01 08:33:27;;;;;;;48.47;26.42;;;3.00;99.90;;;;;;5071869;28;20347;-72
2023/12/01 08:36:13;;;;;;;57.33;31.70;;;3.00;99.90;;;;;;5069593;28;20203;-72
2023/12/01 08:38:58;;;;;;;53.45;28.95;;;3.00;99.90;;;;;;5081190;28;20205;-72
2023/12/01 08:41:44;;;;;;;57.80;34.75;;;2.90;99.90;;;;;;5083044;28;20687;-72
2023/12/01 08:44:31;;;;;;;60.17;33.58;;;2.90;99.90;;;;;;5076109;28;20588;-71
2023/12/01 08:47:20;;;;;;;62.65;37.03;;;3.00;99.90;;;;;;5073297;28;20690;-72
2023/12/01 08:50:07;;;;;;;56.22;32.58;;;2.90;99.90;;;;;;5063765;28;20548;-72
2023/12/01 08:52:53;;;;;;;60.08;36.20;;;3.00;99.90;;;;;;5075822;28;20200;-71
2023/12/01 08:55:39;;;;;;;58.08;31.65;;;3.00;99.90;;;;;;5081897;28;20227;-72
2023/12/01 08:58:24;;;;;;;53.33;30.73;;;3.10;99.90;;;;;;5075909;28;20736;-72
2023/12/01 09:01:12;;;;;;;53.78;31.27;;;3.10;99.90;;;;;;5085817;28;20196;-73
2023/12/01 09:03:57;;;;;;;54.50;29.70;;;3.10;99.90;;;;;;5089920;28;20220;-73
2023/12/01 09:06:43;;;;;;;59.47;31.48;;;3.10;99.90;;;;;;5087430;28;20207;-73
2023/12/01 09:09:28;;;;;;;47.70;27.65;;;3.10;99.90;;;;;;5069893;28;20203;-73
2023/12/01 09:12:14;;;;;;;53.72;28.35;;;3.20;99.90;;;;;;5078023;28;20219;-73
2023/12/01 09:15:00;;;;;;;52.22;27.45;;;3.10;99.90;;;;;;5063699;28;20350;-73
2023/12/01 09:17:47;;;;;;;51.13;31.73;;;3.10;99.90;;;;;;5073119;28;20250;-73
2023/12/01 09:20:32;;;;;;;56.05;32.72;;;3.10;99.90;;;;;;5078323;28;20723;-74
2023/12/01 09:23:18;;;;;;;47.33;28.50;;;3.20;99.90;;;;;;5082166;28;20242;-73
2023/12/01 09:26:06;;;;;;;50.40;29.75;;;3.20;99.90;;;;;;5071174;28;20203;-73
2023/12/01 09:28:52;;;;;;;45.70;26.48;;;3.20;99.90;;;;;;5087291;28;20266;-73
2023/12/01 09:31:43;;;;;;;46.92;27.20;;;3.20;99.90;;;;;;5090804;28;20223;-73
2023/12/01 09:34:30;;;;;;;51.50;29.17;;;3.20;99.90;;;;;;5078973;28;20275;-73
2023/12/01 09:37:16;;;;;;;56.63;31.90;;;3.30;99.90;;;;;;5074759;28;20273;-73
2023/12/01 09:40:03;;;;;;;54.53;30.20;;;3.30;99.90;;;;;;5089167;28;20205;-72
2023/12/01 09:42:50;;;;;;;50.10;29.48;;;3.30;99.90;;;;;;5088686;28;20306;-72
2023/12/01 09:45:36;;;;;;;51.05;29.48;;;3.30;99.90;;;;;;5079981;28;20200;-72
2023/12/01 09:48:22;;;;;;;58.92;29.75;;;3.30;99.90;;;;;;5082099;28;20195;-72
2023/12/01 09:51:09;;;;;;;53.58;29.67;;;3.20;99.90;;;;;;5093091;28;20301;-72
2023/12/01 09:53:55;;;;;;;55.25;27.35;;;3.10;99.90;;;;;;5091540;28;20279;-72
2023/12/01 09:56:41;;;;;;;61.33;28.40;;;3.20;99.90;;;;;;5091282;28;20254;-72
2023/12/01 09:59:26;;;;;;;53.45;26.80;;;3.20;99.90;;;;;;5092514;28;20215;-72
2023/12/01 10:02:12;;;;;;;53.85;29.90;;;3.20;99.90;;;;;;5087560;28;20196;-73
2023/12/01 10:05:01;;;;;;;66.72;37.40;;;3.20;99.90;;;;;;5088511;28;20228;-72
2023/12/01 10:07:49;;;;;;;65.50;31.65;;;3.20;99.90;;;;;;5082521;28;20677;-72
2023/12/01 10:10:35;;;;;;;63.65;31.55;;;3.20;99.90;;;;;;5086531;28;20326;-72
2023/12/01 10:13:21;;;;;;;58.63;29.20;;;3.10;99.90;;;;;;5086539;28;20195;-72
2023/12/01 10:16:07;;;;;;;55.45;27.92;;;3.10;99.90;;;;;;5086988;28;20203;-72
2023/12/01 10:19:00;;;;;;;49.85;27.42;;;3.10;99.90;;;;;;5091452;28;20215;-72
2023/12/01 10:21:47;;;;;;;53.88;27.70;;;3.20;99.90;;;;;;5088568;28;20200;-72
2023/12/01 10:24:34;;;;;;;57.40;27.13;;;3.20;99.90;;;;;;5084690;28;20738;-72
2023/12/01 10:27:20;;;;;;;59.22;30.83;;;3.20;99.90;;;;;;5080683;28;20215;-72
2023/12/01 10:30:11;;;;;;;49.00;26.80;;;3.10;99.90;;;;;;5093133;28;20721;-72
2023/12/01 10:32:57;;;;;;;48.78;26.63;;;3.10;99.90;;;;;;5080513;28;20337;-73
2023/12/01 10:35:58;;;;;;;50.25;28.45;;;3.10;99.90;;;;;;5091457;28;20219;-72
2023/12/01 10:38:45;;;;;;;53.05;30.95;;;3.10;99.90;;;;;;5085960;28;20601;-73
2023/12/01 10:41:33;;;;;;;43.88;25.48;;;3.20;99.90;;;;;;5075490;28;20328;-72
2023/12/01 10:44:19;;;;;;;40.83;23.90;;;3.10;99.90;;;;;;5082112;28;20219;-74
2023/12/01 10:47:07;;;;;;;45.10;25.52;;;3.10;99.90;;;;;;5087223;28;20228;-73
2023/12/01 10:49:55;;;;;;;51.40;26.58;;;3.10;99.90;;;;;;5076607;28;20778;-73
2023/12/01 10:52:45;;;;;;;47.90;29.00;;;3.10;99.90;;;;;;5091251;28;20224;-73
2023/12/01 10:55:31;;;;;;;47.17;27.85;;;3.10;99.90;;;;;;5084209;28;20253;-73
2023/12/01 10:58:22;;;;;;;42.72;26.63;;;3.20;99.90;;;;;;5091487;28;20196;-72
2023/12/01 11:01:07;;;;;;;45.38;26.70;;;3.20;99.90;;;;;;5077247;28;20265;-72
2023/12/01 11:03:55;;;;;;;50.85;28.30;;;3.20;99.90;;;;;;5090574;28;20227;-72
2023/12/01 11:06:50;;;;;;;42.72;25.17;;;3.30;99.90;;;;;;5073526;28;20685;-72
2023/12/01 11:09:42;;;;;;;39.38;25.10;;;3.30;99.90;;;;;;5076683;28;20677;-72
2023/12/01 11:12:39;;;;;;;42.08;24.40;;;3.30;99.90;;;;;;5082085;28;20238;-72
2023/12/01 11:15:30;;;;;;;48.42;27.45;;;3.30;99.90;;;;;;5090908;28;20270;-72
2023/12/01 11:18:17;;;;;;;43.70;24.92;;;3.30;99.90;;;;;;5091637;28;20714;-72
2023/12/01 11:21:05;;;;;;;40.42;25.48;;;3.30;99.90;;;;;;5091289;28;20274;-72
2023/12/01 11:23:50;;;;;;;48.42;25.65;;;3.30;99.90;;;;;;5091229;28;20707;-72
2023/12/01 11:26:36;;;;;;;43.40;25.95;;;3.30;99.90;;;;;;5079322;28;20289;-72
2023/12/01 11:29:28;;;;;;;47.50;28.48;;;3.30;99.90;;;;;;5066800;28;20220;-73
2023/12/01 11:32:15;;;;;;;43.30;27.90;;;3.30;99.90;;;;;;5075490;28;20223;-73
2023/12/01 11:35:06;;;;;;;42.35;27.48;;;3.30;99.90;;;;;;5087958;28;20589;-73
2023/12/01 11:38:03;;;;;;;44.42;27.73;;;3.30;99.90;;;;;;5080233;28;20449;-73
2023/12/01 11:40:52;;;;;;;44.80;28.70;;;3.20;99.90;;;;;;5083214;28;20738;-73
2023/12/01 11:43:38;;;;;;;48.38;28.77;;;3.20;99.90;;;;;;5083984;28;20223;-73
2023/12/01 11:46:24;;;;;;;41.60;27.00;;;3.20;99.90;;;;;;5073178;28;20196;-72
2023/12/01 11:49:14;;;;;;;51.13;28.92;;;3.20;99.90;;;;;;5061575;28;20270;-73
2023/12/01 11:52:01;;;;;;;50.67;30.15;;;3.20;99.90;;;;;;5069050;28;20247;-73
2023/12/01 11:54:48;;;;;;;50.22;30.27;;;3.10;99.90;;;;;;5052163;28;20224;-73
2023/12/01 11:57:34;;;;;;;52.03;29.65;;;3.20;99.90;;;;;;5061079;28;20562;-73
2023/12/01 12:00:20;;;;;;;54.28;29.67;;;3.10;99.90;;;;;;5059117;28;20567;-73
2023/12/01 12:03:20;;;;;;;50.00;28.65;;;3.10;99.90;;;;;;5071743;28;20195;-73
2023/12/01 12:06:08;;;;;;;54.10;29.88;;;3.20;99.90;;;;;;5082541;28;20208;-74
2023/12/01 12:08:54;;;;;;;53.92;30.75;;;3.20;99.90;;;;;;5063304;28;20201;-72
2023/12/01 12:11:39;;;;;;;55.50;31.00;;;3.20;99.90;;;;;;5068359;28;20749;-72
2023/12/01 12:14:27;;;;;;;47.90;28.40;;;3.20;99.90;;;;;;5060176;28;20313;-72
2023/12/01 12:17:12;;;;;;;51.33;30.30;;;3.20;99.90;;;;;;5056845;28;20199;-73
2023/12/01 12:19:59;;;;;;;50.15;31.30;;;3.20;99.90;;;;;;5067064;28;20203;-74
2023/12/01 12:22:46;;;;;;;48.25;28.48;;;3.20;99.90;;;;;;5069218;28;20219;-73
2023/12/01 12:25:36;;;;;;;50.63;29.98;;;3.20;99.90;;;;;;5065018;28;20232;-73
2023/12/01 12:28:22;;;;;;;49.70;30.67;;;3.20;99.90;;;;;;5067244;28;20219;-73
2023/12/01 12:31:08;;;;;;;48.75;30.48;;;3.20;99.90;;;;;;5063566;28;20203;-73
2023/12/01 12:33:54;;;;;;;51.67;30.55;;;3.20;99.90;;;;;;5080100;28;20228;-73
2023/12/01 12:36:40;;;;;;;49.83;28.25;;;3.20;99.90;;;;;;5072145;28;20238;-73
2023/12/01 12:39:28;;;;;;;57.17;30.13;;;3.20;99.90;;;;;;5066186;28;20239;-74
2023/12/01 12:42:16;;;;;;;49.33;28.58;;;3.30;99.90;;;;;;5067499;28;20205;-74
2023/12/01 12:45:01;;;;;;;51.03;31.05;;;3.30;99.90;;;;;;5074455;28;20227;-74
2023/12/01 12:47:47;;;;;;;42.38;27.27;;;3.30;99.90;;;;;;5066671;28;20208;-73
2023/12/01 12:50:39;;;;;;;40.03;26.30;;;3.30;99.90;;;;;;5057529;28;20205;-73
2023/12/01 12:53:25;;;;;;;42.45;27.45;;;3.30;99.90;;;;;;5077141;28;20216;-73
2023/12/01 12:56:14;;;;;;;47.45;27.40;;;3.30;99.90;;;;;;5060918;28;20299;-73
2023/12/01 12:59:00;;;;;;;43.92;27.67;;;3.30;99.90;;;;;;5061875;28;20331;-73
2023/12/01 13:01:46;;;;;;;50.72;27.73;;;3.30;99.90;;;;;;5069694;28;20333;-73
2023/12/01 13:04:32;;;;;;;45.05;27.90;;;3.40;99.90;;;;;;5075178;28;20220;-73
2023/12/01 13:07:18;;;;;;;39.40;26.63;;;3.30;99.90;;;;;;5073305;28;20203;-73
2023/12/01 13:10:04;;;;;;;45.13;29.70;;;3.30;99.90;;;;;;5072778;28;20296;-73
2023/12/01 13:12:52;;;;;;;46.05;27.30;;;3.30;99.90;;;;;;5064679;28;20224;-73
2023/12/01 13:15:37;;;;;;;47.80;28.95;;;3.30;99.90;;;;;;5079782;28;20675;-74
2023/12/01 13:18:23;;;;;;;47.05;27.08;;;3.30;99.90;;;;;;5068483;28;20201;-74
2023/12/01 13:21:09;;;;;;;59.38;33.33;;;3.30;99.90;;;;;;5075101;28;20203;-73
2023/12/01 13:23:55;;;;;;;51.97;31.15;;;3.30;99.90;;;;;;5075417;28;20238;-73
2023/12/01 13:26:41;;;;;;;48.92;27.35;;;3.30;99.90;;;;;;5083444;28;20586;-73
2023/12/01 13:29:28;;;;;;;64.85;32.70;;;3.20;99.90;;;;;;5066034;28;20667;-73
2023/12/01 13:32:13;;;;;;;63.30;34.35;;;3.20;99.90;;;;;;5061234;28;20220;-73
2023/12/01 13:34:59;;;;;;;40.80;24.83;;;3.20;99.90;;;;;;5079411;28;20265;-74
2023/12/01 13:37:44;;;;;;;45.40;28.33;;;3.10;99.90;;;;;;5069826;28;20212;-74
2023/12/01 13:40:30;;;;;;;43.83;27.52;;;3.20;99.90;;;;;;5063962;28;20208;-74
2023/12/01 13:43:16;;;;;;;51.25;31.33;;;3.20;99.90;;;;;;5069055;28;20623;-73
2023/12/01 13:46:03;;;;;;;48.65;30.42;;;3.20;99.90;;;;;;5076070;28;20269;-74
2023/12/01 13:48:49;;;;;;;41.85;27.77;;;3.10;99.90;;;;;;5076753;28;20204;-74
2023/12/01 13:51:35;;;;;;;58.78;29.73;;;3.20;99.90;;;;;;5077435;28;20299;-73
2023/12/01 13:54:20;;;;;;;42.03;26.80;;;3.20;99.90;;;;;;5077040;28;20231;-73
2023/12/01 13:57:06;;;;;;;43.63;28.23;;;3.20;99.90;;;;;;5083173;28;20216;-73
2023/12/01 13:59:51;;;;;;;40.80;25.88;;;3.20;99.90;;;;;;5061455;28;20205;-73
2023/12/01 14:02:39;;;;;;;34.97;21.38;;;3.20;99.90;;;;;;5072941;28;20678;-74
2023/12/01 14:05:24;;;;;;;38.97;21.80;;;3.20;99.90;;;;;;5063406;28;20262;-73
2023/12/01 14:08:11;;;;;;;38.45;22.48;;;3.10;99.90;;;;;;5072102;28;20208;-73
2023/12/01 14:10:56;;;;;;;41.50;23.00;;;3.10;99.90;;;;;;5061817;28;20208;-73
2023/12/01 14:13:42;;;;;;;35.42;22.40;;;3.10;99.90;;;;;;5076181;28;20316;-74